Date,TemperatureHighF,TemperatureAvgF,TemperatureLowF,DewpointHighF,DewpointAvgF,DewpointLowF,HumidityHigh,HumidityAvg,HumidityLow,PressureMaxIn,PressureMinIn,WindSpeedMaxMPH,WindSpeedAvgMPH,GustSpeedMaxMPH,PrecipitationSumIn
2013-7-1,87.6,75.8,64.9,58.7,47.2,32.3,62,39,21,29.93,29.85,12,2,12,0.00
2013-7-2,86.5,76.8,66.4,52.3,40.3,31.5,56,28,15,30.00,29.91,11,2,11,0.00
2013-7-3,91.6,75.1,63.5,58.6,49.9,35.5,68,44,18,29.94,29.82,10,1,10,0.00
2013-7-4,89.1,75.3,63.0,65.3,49.7,37.1,72,44,20,29.85,29.78,13,2,13,0.00
2013-7-5,84.4,73.7,64.4,56.9,49.9,40.1,72,45,26,29.83,29.77,10,2,10,0.00
2013-7-6,84.6,73.4,65.3,53.5,44.4,27.7,65,37,18,29.82,29.77,9,2,9,0.00
2013-7-7,88.3,73.6,59.4,55.4,42.3,21.1,61,37,10,29.88,29.78,10,2,10,0.00
2013-7-8,88.9,70.9,57.2,57.7,38.8,16.0,75,41,10,29.99,29.87,11,1,11,0.00
2013-7-9,89.8,73.8,59.4,56.6,38.6,19.6,61,34,10,30.02,29.96,8,1,8,0.00
2013-7-10,89.4,74.2,65.7,58.3,49.4,23.9,70,46,10,29.99,29.89,7,1,7,0.00
2013-7-11,72.9,68.5,64.9,61.6,51.4,39.6,83,55,32,29.92,29.86,5,1,5,0.00
2013-7-12,79.9,70.3,62.8,56.7,50.5,35.1,75,51,30,29.91,29.85,11,2,11,0.00
2013-7-13,86.5,70.4,56.8,54.3,40.7,18.9,60,39,10,29.94,29.87,8,1,8,0.00
2013-7-14,87.3,72.0,60.8,55.4,46.1,27.7,68,43,18,29.94,29.85,7,1,7,0.00
2013-7-15,82.8,70.0,60.6,54.6,45.0,28.1,72,44,17,29.88,29.82,11,3,13,0.00
2013-7-16,80.1,70.3,63.3,43.7,23.0,5.9,44,18,10,29.93,29.81,14,5,14,0.00
2013-7-17,84.2,70.4,52.3,43.2,22.2,4.9,66,20,10,29.99,29.92,10,2,10,0.00
2013-7-18,88.9,72.7,55.6,50.9,32.6,15.4,57,29,10,29.97,29.88,8,1,8,0.00
2013-7-19,88.9,73.5,60.3,53.4,41.1,22.2,55,35,10,29.91,29.83,10,2,10,0.00
2013-7-20,82.6,73.1,64.9,66.2,56.8,40.6,91,58,30,29.88,29.79,11,2,11,0.01
2013-7-21,75.7,68.6,63.1,63.9,61.7,57.8,98,79,56,29.90,29.79,20,1,20,0.02
2013-7-22,78.1,69.4,62.4,63.9,61.6,59.8,98,77,57,29.94,29.86,9,2,9,0.00
2013-7-23,80.1,70.3,59.5,62.2,58.1,50.8,99,69,39,29.97,29.90,8,2,11,0.00
2013-7-24,84.9,74.8,59.9,63.6,54.9,43.9,92,53,31,29.94,29.87,10,2,10,0.00
2013-7-25,88.0,74.0,60.6,60.4,49.3,32.3,79,46,15,30.00,29.90,11,2,11,0.00
2013-7-26,81.0,72.4,64.9,62.9,55.0,41.4,78,56,29,30.05,29.97,11,1,11,0.01
2013-7-27,84.0,72.4,62.4,63.3,55.0,47.1,89,58,32,29.99,29.86,11,2,11,0.00
2013-7-28,78.6,71.4,64.2,51.4,40.5,18.3,54,34,16,29.88,29.81,14,4,14,0.00
2013-7-29,79.2,70.1,61.0,48.8,32.0,10.4,53,27,10,29.96,29.84,12,3,12,0.00
2013-7-30,81.3,73.3,61.9,54.1,46.8,36.4,62,41,21,30.02,29.96,16,4,16,0.00
2013-7-31,79.2,71.4,61.2,53.3,36.1,16.3,71,31,10,30.01,29.92,13,4,13,0.00